Houston, Texas
Traffic Map
Current Weather Conditions
Houston, Texas
Scattered Clouds
Scattered Clouds
25°
Feels Like: 26°
Wind Chill: 25° Ceiling: Unl
Heat Index: 26° Visibility: 10mi
Dew Point: 15° Wind: 6mph
Humidity: 54% Direction: 180° (S)
Pressure: 30.17in Gusts: 0mph
Raw Report DataKMCJ 301735Z AUTO 18005KT 10SM SCT032 25/15 A3017 RMK AO1
Traffic Incident Summary
Active as of:
Severity:
Category:
InformationThere was an issue retrieving the traffic information for this location. Please try a different location or try again shortly.
Advertisements
Track Severe Weather on mobile